createdAt,value
2019-01-20T00:01:12.013Z,18.57
2019-01-20T00:03:42.034Z,17.43
2019-01-20T00:06:12.018Z,17.80
2019-01-20T00:08:42.093Z,15.97
2019-01-20T00:11:16.635Z,17.80
2019-01-20T00:13:43.779Z,15.93
2019-01-20T00:16:13.879Z,17.37
2019-01-20T00:18:43.861Z,16.57
2019-01-20T00:21:13.971Z,17.93
2019-01-20T00:23:44.071Z,17.83
2019-01-20T00:26:14.078Z,18.03
2019-01-20T00:28:44.152Z,19.17
2019-01-20T00:31:14.155Z,18.07
2019-01-20T00:33:44.175Z,21.03
2019-01-20T00:36:14.262Z,20.20
2019-01-20T00:38:44.317Z,20.83
2019-01-20T00:41:14.401Z,20.03
2019-01-20T00:43:44.480Z,18.90
2019-01-20T00:46:14.534Z,19.73
2019-01-20T00:48:44.624Z,19.40
2019-01-20T00:51:14.807Z,18.27
2019-01-20T00:53:44.849Z,16.90
2019-01-20T00:56:14.856Z,19.77
2019-01-20T00:58:44.836Z,17.10
2019-01-20T01:01:14.930Z,18.83
2019-01-20T01:03:45.036Z,18.60
2019-01-20T01:06:15.101Z,19.20
2019-01-20T01:08:45.102Z,21.33
2019-01-20T01:11:15.172Z,20.53
2019-01-20T01:13:45.242Z,21.27
2019-01-20T01:16:16.314Z,21.37
2019-01-20T01:18:46.310Z,19.90
2019-01-20T01:21:16.298Z,19.00
2019-01-20T01:23:46.382Z,17.03
2019-01-20T01:26:16.452Z,18.77
2019-01-20T01:28:46.452Z,16.57
2019-01-20T01:31:16.464Z,19.73
2019-01-20T01:33:46.544Z,17.50
2019-01-20T01:36:16.526Z,18.57
2019-01-20T01:38:46.583Z,18.80
2019-01-20T01:41:16.649Z,20.17
2019-01-20T01:43:46.728Z,22.07
2019-01-20T01:46:16.798Z,19.60
2019-01-20T01:48:46.804Z,20.40
2019-01-20T01:51:16.805Z,23.40
2019-01-20T01:53:46.900Z,20.57
2019-01-20T01:56:16.952Z,20.93
2019-01-20T01:58:47.012Z,20.07
2019-01-20T02:01:17.086Z,20.03
2019-01-20T02:03:47.135Z,20.80
2019-01-20T02:06:17.230Z,19.60
2019-01-20T02:08:47.355Z,18.77
2019-01-20T02:11:17.355Z,20.20
2019-01-20T02:13:47.404Z,19.83
2019-01-20T02:16:17.483Z,19.03
2019-01-20T02:18:47.557Z,19.33
2019-01-20T02:21:17.539Z,22.47
2019-01-20T02:23:47.546Z,19.70
2019-01-20T02:26:17.637Z,19.43
2019-01-20T02:28:47.643Z,21.53
2019-01-20T02:31:17.711Z,20.23
2019-01-20T02:33:47.778Z,20.40
2019-01-20T02:36:17.933Z,19.70
2019-01-20T02:38:48.085Z,20.83
2019-01-20T02:41:18.180Z,21.50
2019-01-20T02:43:48.244Z,20.80
2019-01-20T02:46:18.239Z,21.60
2019-01-20T02:48:48.295Z,20.80
2019-01-20T02:51:18.289Z,19.60
2019-01-20T02:53:48.351Z,20.90
2019-01-20T02:56:18.366Z,20.63
2019-01-20T02:58:48.345Z,21.27
2019-01-20T03:01:18.399Z,22.30
2019-01-20T03:03:48.396Z,21.30
2019-01-20T03:06:18.413Z,20.40
2019-01-20T03:08:48.525Z,21.00
2019-01-20T03:11:18.517Z,20.07
2019-01-20T03:13:48.600Z,21.10
2019-01-20T03:16:18.656Z,21.93
2019-01-20T03:18:48.752Z,20.93
2019-01-20T03:21:18.820Z,21.63
2019-01-20T03:23:48.791Z,20.93
2019-01-20T03:26:18.772Z,22.67
2019-01-20T03:28:48.761Z,19.83
2019-01-20T03:31:18.844Z,22.93
2019-01-20T03:33:48.917Z,21.47
2019-01-20T03:36:18.916Z,23.60
2019-01-20T03:38:48.976Z,23.80
2019-01-20T03:41:18.970Z,25.03
2019-01-20T03:43:48.979Z,23.60
2019-01-20T03:46:19.115Z,24.93
2019-01-20T03:48:49.086Z,23.50
2019-01-20T03:51:19.065Z,27.57
2019-01-20T03:53:49.135Z,24.80
2019-01-20T03:56:19.129Z,26.60
2019-01-20T03:58:49.206Z,22.30
2019-01-20T04:01:19.195Z,29.40
2019-01-20T04:03:49.278Z,26.27
2019-01-20T04:06:19.315Z,30.80
2019-01-20T04:08:49.402Z,28.53
2019-01-20T04:11:19.537Z,37.60
2019-01-20T04:13:49.615Z,30.17
2019-01-20T04:16:19.626Z,30.97
2019-01-20T04:18:49.628Z,27.00
2019-01-20T04:21:19.633Z,24.80
2019-01-20T04:23:50.173Z,26.07
2019-01-20T04:26:20.323Z,28.47
2019-01-20T04:28:50.317Z,26.20
2019-01-20T04:31:20.448Z,24.17
2019-01-20T04:33:50.444Z,28.70
2019-01-20T04:36:20.462Z,29.20
2019-01-20T04:38:50.607Z,29.23
2019-01-20T04:41:20.768Z,29.00
2019-01-20T04:43:50.873Z,30.93
2019-01-20T04:46:20.955Z,32.20
2019-01-20T04:48:50.969Z,32.83
2019-01-20T04:51:20.962Z,32.93
2019-01-20T04:53:51.053Z,30.27
2019-01-20T04:56:21.115Z,29.77
2019-01-20T04:58:51.099Z,27.17
2019-01-20T05:01:21.092Z,26.97
2019-01-20T05:03:51.091Z,28.33
2019-01-20T05:06:21.129Z,27.23
2019-01-20T05:08:51.218Z,28.20
2019-01-20T05:11:21.182Z,26.00
2019-01-20T05:13:51.168Z,26.27
2019-01-20T05:16:21.144Z,31.40
2019-01-20T05:18:51.121Z,28.90
2019-01-20T05:21:21.190Z,27.77
2019-01-20T05:23:51.253Z,25.83
2019-01-20T05:26:21.259Z,25.23
2019-01-20T05:28:51.252Z,24.03
2019-01-20T05:31:21.322Z,24.23
2019-01-20T05:33:51.321Z,26.57
2019-01-20T05:36:21.380Z,23.77
2019-01-20T05:38:51.372Z,23.73
2019-01-20T05:41:21.359Z,22.80
2019-01-20T05:43:51.364Z,26.03
2019-01-20T05:46:21.523Z,25.63
2019-01-20T05:48:51.603Z,26.67
2019-01-20T05:51:21.619Z,25.93
2019-01-20T05:53:51.614Z,24.67
2019-01-20T05:56:21.614Z,25.00
2019-01-20T05:58:51.599Z,25.50
2019-01-20T06:01:21.691Z,24.17
2019-01-20T06:03:51.670Z,24.83
2019-01-20T06:06:21.684Z,25.73
2019-01-20T06:08:51.686Z,22.13
2019-01-20T06:11:21.682Z,25.70
2019-01-20T06:13:51.662Z,24.13
2019-01-20T06:16:21.668Z,24.73
2019-01-20T06:18:51.704Z,20.07
2019-01-20T06:21:21.715Z,20.30
2019-01-20T06:23:51.730Z,21.13
2019-01-20T06:26:21.709Z,21.40
2019-01-20T06:28:51.699Z,22.33
2019-01-20T06:31:21.765Z,22.30
2019-01-20T06:33:51.767Z,20.37
2019-01-20T06:36:21.845Z,21.77
2019-01-20T06:38:51.959Z,22.47
2019-01-20T06:41:21.963Z,20.70
2019-01-20T06:43:51.958Z,19.00
2019-01-20T06:46:21.991Z,20.47
2019-01-20T06:48:51.969Z,20.60
2019-01-20T06:51:22.064Z,20.93
2019-01-20T06:53:52.155Z,19.53
2019-01-20T06:56:22.153Z,22.10
2019-01-20T06:58:52.172Z,20.77
2019-01-20T07:01:22.169Z,21.43
2019-01-20T07:03:52.353Z,22.37
2019-01-20T07:06:22.353Z,19.27
2019-01-20T07:08:52.383Z,18.67
2019-01-20T07:11:22.372Z,22.17
2019-01-20T07:13:52.470Z,20.80
2019-01-20T07:16:22.574Z,27.60
2019-01-20T07:18:52.665Z,22.37
2019-01-20T07:21:22.739Z,21.50
2019-01-20T07:23:52.800Z,22.13
2019-01-20T07:26:22.819Z,23.87
2019-01-20T07:28:52.898Z,22.93
2019-01-20T07:31:22.911Z,23.60
2019-01-20T07:33:52.951Z,19.23
2019-01-20T07:36:23.074Z,19.40
2019-01-20T07:38:53.168Z,19.10
2019-01-20T07:41:23.251Z,18.90
2019-01-20T07:43:53.328Z,16.80
2019-01-20T07:46:23.404Z,19.13
2019-01-20T07:48:53.413Z,19.37
2019-01-20T07:51:23.416Z,17.90
2019-01-20T07:53:53.418Z,17.63
2019-01-20T07:56:23.454Z,20.33
2019-01-20T07:58:53.534Z,19.77
2019-01-20T08:01:23.592Z,23.87
2019-01-20T08:03:53.594Z,23.53
2019-01-20T08:06:23.668Z,23.07
2019-01-20T08:08:53.790Z,22.10
2019-01-20T08:11:23.794Z,21.43
2019-01-20T08:13:53.794Z,25.72
2019-01-20T08:16:23.812Z,26.67
2019-01-20T08:18:53.800Z,23.20
2019-01-20T08:21:23.887Z,24.77
2019-01-20T08:23:53.959Z,23.63
2019-01-20T08:26:24.102Z,25.70
2019-01-20T08:28:54.163Z,23.10
2019-01-20T08:31:24.204Z,25.10
2019-01-20T08:33:54.305Z,24.80
2019-01-20T08:36:24.396Z,26.43
2019-01-20T08:38:54.471Z,26.33
2019-01-20T08:41:24.469Z,27.40
2019-01-20T08:43:54.480Z,46.33
2019-01-20T08:46:41.499Z,32.17
2019-01-20T08:49:11.641Z,26.33
2019-01-20T08:51:42.803Z,26.63
2019-01-20T08:54:12.892Z,28.60
2019-01-20T08:56:42.911Z,30.23
2019-01-20T08:59:13.059Z,27.90
2019-01-20T09:01:43.163Z,32.63
2019-01-20T09:04:13.205Z,36.03
2019-01-20T09:06:43.337Z,31.03
2019-01-20T09:09:13.374Z,31.33
2019-01-20T09:11:43.425Z,28.70
2019-01-20T09:14:13.514Z,29.90
2019-01-20T09:16:43.596Z,28.17
2019-01-20T09:19:13.710Z,31.83
2019-01-20T09:21:43.829Z,27.83
2019-01-20T09:24:13.937Z,30.90
2019-01-20T09:26:43.933Z,27.50
2019-01-20T09:29:13.945Z,28.50
2019-01-20T09:31:43.943Z,26.53
2019-01-20T09:34:13.949Z,26.83
2019-01-20T09:36:44.052Z,27.93
2019-01-20T09:39:14.807Z,28.37
2019-01-20T09:41:44.901Z,28.90
2019-01-20T09:44:15.043Z,35.53
2019-01-20T09:46:45.145Z,31.63
2019-01-20T09:49:15.287Z,34.90
2019-01-20T09:51:45.489Z,40.43
2019-01-20T09:54:15.500Z,38.10
2019-01-20T09:56:45.518Z,34.20
2019-01-20T09:59:15.542Z,35.07
2019-01-20T10:01:45.687Z,30.87
2019-01-20T10:04:15.735Z,35.70
2019-01-20T10:06:46.010Z,29.77
2019-01-20T10:09:16.062Z,29.83
2019-01-20T10:11:46.168Z,27.83
2019-01-20T10:14:16.345Z,31.93
2019-01-20T10:16:46.500Z,28.40
2019-01-20T10:19:16.645Z,27.90
2019-01-20T10:21:46.810Z,24.47
2019-01-20T10:24:16.894Z,28.23
2019-01-20T10:26:46.926Z,26.73
2019-01-20T10:29:17.131Z,30.20
2019-01-20T10:31:47.486Z,26.90
2019-01-20T10:34:17.616Z,25.30
2019-01-20T10:36:47.713Z,26.20
2019-01-20T10:39:17.847Z,24.50
2019-01-20T10:41:47.976Z,21.20
2019-01-20T10:44:18.108Z,21.90
2019-01-20T10:46:48.139Z,40.90
2019-01-20T10:49:18.181Z,25.00
2019-01-20T10:51:48.306Z,25.27
2019-01-20T10:54:18.322Z,24.80
2019-01-20T10:56:48.389Z,22.73
2019-01-20T10:59:18.492Z,18.77
2019-01-20T11:01:48.760Z,20.20
2019-01-20T11:04:18.763Z,17.10
2019-01-20T11:06:48.856Z,17.47
2019-01-20T11:09:19.001Z,18.20
2019-01-20T11:11:49.126Z,16.87
2019-01-20T11:14:19.205Z,17.00
2019-01-20T11:16:49.343Z,15.90
2019-01-20T11:19:19.545Z,18.17
2019-01-20T11:21:49.761Z,16.23
2019-01-20T11:24:20.014Z,15.60
2019-01-20T11:26:50.110Z,15.67
2019-01-20T11:29:20.301Z,15.73
2019-01-20T11:31:50.447Z,15.40
2019-01-20T11:34:20.737Z,14.23
2019-01-20T11:36:50.861Z,14.90
2019-01-20T11:39:20.986Z,15.50
2019-01-20T11:41:51.079Z,14.80
2019-01-20T11:44:21.217Z,13.97
2019-01-20T11:46:51.444Z,14.10
2019-01-20T11:49:21.595Z,13.50
2019-01-20T11:51:51.827Z,14.83
2019-01-20T11:54:22.065Z,13.60
2019-01-20T11:56:52.589Z,13.90
2019-01-20T11:59:22.717Z,14.67
2019-01-20T12:01:52.836Z,11.40
2019-01-20T12:04:22.972Z,12.70
2019-01-20T12:06:53.182Z,12.17
2019-01-20T12:09:23.216Z,11.87
2019-01-20T12:11:53.404Z,12.00
2019-01-20T12:14:24.224Z,10.13
2019-01-20T12:16:54.488Z,10.57
2019-01-20T12:19:24.586Z,10.30
2019-01-20T12:21:55.935Z,10.07
2019-01-20T12:24:27.539Z,12.23
2019-01-20T12:26:57.722Z,13.07
2019-01-20T12:29:27.942Z,11.17
2019-01-20T12:31:58.164Z,12.57
2019-01-20T12:34:28.445Z,12.17
2019-01-20T12:36:58.674Z,15.10
2019-01-20T12:39:28.925Z,10.67
2019-01-20T12:42:00.298Z,11.37
2019-01-20T12:44:31.587Z,11.90
2019-01-20T12:47:01.966Z,12.43
2019-01-20T12:49:32.462Z,12.73
2019-01-20T12:52:02.680Z,10.93
2019-01-20T12:54:32.904Z,12.17
2019-01-20T12:57:03.111Z,13.00
2019-01-20T12:59:33.379Z,11.87
2019-01-20T13:02:03.585Z,10.40
2019-01-20T13:04:33.810Z,12.13
2019-01-20T13:07:04.496Z,12.40
2019-01-20T13:09:34.523Z,12.33
2019-01-20T13:12:04.703Z,13.03
2019-01-20T13:14:38.949Z,13.63
2019-01-20T13:17:07.597Z,13.97
2019-01-20T13:19:37.657Z,11.83
2019-01-20T13:22:08.393Z,12.67
2019-01-20T13:24:39.188Z,15.07
2019-01-20T13:27:09.371Z,14.90
2019-01-20T13:29:39.843Z,13.93
2019-01-20T13:32:10.070Z,15.47
2019-01-20T13:34:40.292Z,17.47
2019-01-20T13:37:10.477Z,18.50
2019-01-20T13:39:40.754Z,20.47
2019-01-20T13:42:10.911Z,21.40
2019-01-20T13:44:46.189Z,19.87
2019-01-20T13:47:13.116Z,22.10
2019-01-20T13:49:45.353Z,21.37
2019-01-20T13:52:15.528Z,22.43
2019-01-20T13:54:45.722Z,19.63
2019-01-20T13:57:15.963Z,22.77
2019-01-20T13:59:46.211Z,28.20
2019-01-20T14:02:16.433Z,23.70
2019-01-20T14:04:46.731Z,20.87
2019-01-20T14:07:16.988Z,21.23
2019-01-20T14:09:47.218Z,24.27
2019-01-20T14:12:17.335Z,23.40
2019-01-20T14:14:53.893Z,24.70
2019-01-20T14:17:19.639Z,27.57
2019-01-20T14:19:49.875Z,22.10
2019-01-20T14:22:20.018Z,21.07
2019-01-20T14:24:50.202Z,22.43
2019-01-20T14:27:21.640Z,22.03
2019-01-20T14:29:51.879Z,23.73
2019-01-20T14:32:22.093Z,24.43
2019-01-20T14:34:52.371Z,24.83
2019-01-20T14:37:22.630Z,22.50
2019-01-20T14:39:52.901Z,21.80
2019-01-20T14:42:23.151Z,21.77
2019-01-20T14:44:53.638Z,21.47
2019-01-20T14:47:23.887Z,22.70
2019-01-20T14:49:56.442Z,24.50
2019-01-20T14:52:29.556Z,21.77
2019-01-20T14:54:59.822Z,20.00
2019-01-20T14:57:30.446Z,19.80
2019-01-20T15:00:00.946Z,20.63
2019-01-20T15:02:31.547Z,20.47
2019-01-20T15:05:06.309Z,22.80
2019-01-20T15:07:36.902Z,20.30
2019-01-20T15:10:08.555Z,21.10
2019-01-20T15:12:40.929Z,20.80
2019-01-20T15:15:16.022Z,20.77
2019-01-20T15:17:46.534Z,19.20
2019-01-20T15:20:17.189Z,21.40
2019-01-20T15:22:48.967Z,20.37
2019-01-20T15:25:22.141Z,20.07
2019-01-20T15:27:52.468Z,20.53
2019-01-20T15:30:26.751Z,21.20
2019-01-20T15:32:57.746Z,20.27
2019-01-20T15:35:29.087Z,20.37
2019-01-20T15:37:59.354Z,21.30
2019-01-20T15:40:30.060Z,21.40
2019-01-20T15:43:00.563Z,22.40
2019-01-20T15:45:30.892Z,22.67
2019-01-20T15:48:01.201Z,22.87
2019-01-20T15:50:33.845Z,22.00
2019-01-20T15:53:05.346Z,24.60
2019-01-20T15:55:35.722Z,22.73
2019-01-20T15:58:06.632Z,23.30
2019-01-20T16:00:37.163Z,22.70
2019-01-20T16:03:07.663Z,23.83
2019-01-20T16:05:38.873Z,22.50
2019-01-20T16:08:09.741Z,24.73
2019-01-20T16:10:40.394Z,23.17
2019-01-20T16:13:11.183Z,24.07
2019-01-20T16:15:41.518Z,24.03
2019-01-20T16:18:14.407Z,24.73
2019-01-20T16:20:44.098Z,24.57
2019-01-20T16:23:14.375Z,23.70
2019-01-20T16:25:44.716Z,23.90
2019-01-20T16:28:15.117Z,23.40
2019-01-20T16:30:46.904Z,24.07
2019-01-20T16:33:18.988Z,24.00
2019-01-20T16:35:51.837Z,24.80
2019-01-20T16:38:22.455Z,24.50
2019-01-20T16:40:52.939Z,25.17
2019-01-20T16:43:23.449Z,25.70
2019-01-20T16:45:53.767Z,24.97
2019-01-20T16:48:24.295Z,24.13
2019-01-20T16:50:54.701Z,22.07
2019-01-20T16:53:25.199Z,23.57
2019-01-20T16:55:55.483Z,23.10
2019-01-20T16:58:25.949Z,21.47
2019-01-20T17:00:56.463Z,23.40
2019-01-20T17:03:26.881Z,23.20
2019-01-20T17:05:57.502Z,22.20
2019-01-20T17:08:27.938Z,22.23
2019-01-20T17:10:58.580Z,22.87
2019-01-20T17:13:29.553Z,22.57
2019-01-20T17:16:01.261Z,22.70
2019-01-20T17:18:32.096Z,22.40
2019-01-20T17:21:03.062Z,23.67
2019-01-20T17:23:34.572Z,25.93
2019-01-20T17:26:07.772Z,25.57
2019-01-20T17:28:40.190Z,26.87
2019-01-20T17:31:10.888Z,26.30
2019-01-20T17:33:41.695Z,25.40
2019-01-20T17:36:12.167Z,26.67
2019-01-20T17:38:43.014Z,26.43
2019-01-20T17:41:13.729Z,27.80
2019-01-20T17:43:45.620Z,26.73
2019-01-20T17:46:18.043Z,24.07
2019-01-20T17:48:52.012Z,25.60
2019-01-20T17:51:22.523Z,26.40
2019-01-20T17:53:52.962Z,27.17
2019-01-20T17:56:24.105Z,26.37
2019-01-20T17:58:57.331Z,23.70
2019-01-20T18:01:28.458Z,23.27
2019-01-20T18:03:59.355Z,25.47
2019-01-20T18:06:30.317Z,25.30
2019-01-20T18:09:01.459Z,24.53
2019-01-20T18:11:32.310Z,24.80
2019-01-20T18:14:02.733Z,24.40
2019-01-20T18:16:35.315Z,23.50
2019-01-20T18:19:06.290Z,23.53
2019-01-20T18:21:37.821Z,23.77
2019-01-20T18:24:09.331Z,23.03
2019-01-20T18:26:42.299Z,24.57
2019-01-20T18:29:14.653Z,25.10
2019-01-20T18:31:50.392Z,23.10
2019-01-20T18:34:21.118Z,24.97
2019-01-20T18:36:52.370Z,24.80
2019-01-20T18:39:23.058Z,24.57
2019-01-20T18:41:55.702Z,25.37
2019-01-20T18:44:26.842Z,26.80
2019-01-20T18:46:59.912Z,26.87
2019-01-20T18:49:31.991Z,27.20
2019-01-20T18:52:04.291Z,29.60
2019-01-20T18:54:36.062Z,26.27
2019-01-20T18:57:09.287Z,28.40
2019-01-20T18:59:40.832Z,28.47
2019-01-20T19:02:13.427Z,30.07
2019-01-20T19:04:45.267Z,31.80
2019-01-20T19:07:17.170Z,29.53
2019-01-20T19:09:49.127Z,29.90
2019-01-20T19:12:21.001Z,28.10
2019-01-20T19:14:56.275Z,27.93
2019-01-20T19:17:28.674Z,28.83
2019-01-20T19:20:00.382Z,29.37
2019-01-20T19:22:33.406Z,28.93
2019-01-20T19:25:05.245Z,28.83
2019-01-20T19:27:36.819Z,31.20
2019-01-20T19:30:12.793Z,28.50
2019-01-20T19:32:46.007Z,31.57
2019-01-20T19:35:18.232Z,31.67
2019-01-20T19:37:50.164Z,31.37
2019-01-20T19:40:25.568Z,31.07
2019-01-20T19:42:56.829Z,32.53
2019-01-20T19:45:30.406Z,31.70
2019-01-20T19:48:01.367Z,29.40
2019-01-20T19:50:32.512Z,31.43
2019-01-20T19:53:03.290Z,30.40
2019-01-20T19:55:36.039Z,32.80
2019-01-20T19:58:18.985Z,28.80
2019-01-20T20:00:50.579Z,28.17
2019-01-20T20:03:21.664Z,30.60
2019-01-20T20:05:52.532Z,31.27
2019-01-20T20:08:24.531Z,29.80
2019-01-20T20:10:55.827Z,29.80
2019-01-20T20:13:30.130Z,28.00
2019-01-20T20:16:01.270Z,30.43
2019-01-20T20:18:32.269Z,27.20
2019-01-20T20:21:03.234Z,30.50
2019-01-20T20:23:36.536Z,30.23
2019-01-20T20:26:07.750Z,29.90
2019-01-20T20:28:45.577Z,29.60
2019-01-20T20:31:19.233Z,31.60
2019-01-20T20:33:50.375Z,29.47
2019-01-20T20:36:26.112Z,31.73
2019-01-20T20:38:59.343Z,30.23
2019-01-20T20:41:33.485Z,31.60
2019-01-20T20:44:04.269Z,31.30
2019-01-20T20:46:35.327Z,29.03
2019-01-20T20:49:07.618Z,30.37
2019-01-20T20:51:38.044Z,30.63
2019-01-20T20:54:08.658Z,31.00
2019-01-20T20:56:42.113Z,30.10
2019-01-20T20:59:12.830Z,29.90
2019-01-20T21:01:44.467Z,32.17
2019-01-20T21:04:14.886Z,30.20
2019-01-20T21:06:47.066Z,30.80
2019-01-20T21:09:18.342Z,32.20
2019-01-20T21:11:48.946Z,31.43
2019-01-20T21:14:19.627Z,31.57
2019-01-20T21:16:54.050Z,32.10
2019-01-20T21:19:25.737Z,30.80
2019-01-20T21:21:56.183Z,30.37
2019-01-20T21:24:28.218Z,30.33
2019-01-20T21:26:58.550Z,30.93
2019-01-20T21:29:28.852Z,30.20
2019-01-20T21:31:59.089Z,31.07
2019-01-20T21:34:29.398Z,30.40
2019-01-20T21:36:59.655Z,31.97
2019-01-20T21:39:29.951Z,29.63
2019-01-20T21:42:00.152Z,31.37
2019-01-20T21:44:30.366Z,30.57
2019-01-20T21:47:00.653Z,30.80
2019-01-20T21:49:30.886Z,32.47
2019-01-20T21:52:03.003Z,30.83
2019-01-20T21:54:33.292Z,29.73
2019-01-20T21:57:03.568Z,30.50
2019-01-20T21:59:33.792Z,31.57
2019-01-20T22:02:04.022Z,31.57
2019-01-20T22:04:34.176Z,34.10
2019-01-20T22:07:04.479Z,31.83
2019-01-20T22:09:34.624Z,33.67
2019-01-20T22:12:04.898Z,33.60
2019-01-20T22:14:35.131Z,34.00
2019-01-20T22:17:05.438Z,30.33
2019-01-20T22:19:35.552Z,31.87
2019-01-20T22:22:05.566Z,31.87
2019-01-20T22:24:35.734Z,31.63
2019-01-20T22:27:05.864Z,33.47
2019-01-20T22:29:35.984Z,33.10
2019-01-20T22:32:06.446Z,31.67
2019-01-20T22:34:36.475Z,33.83
2019-01-20T22:37:06.665Z,32.03
2019-01-20T22:39:36.756Z,32.43
2019-01-20T22:42:06.866Z,30.57
2019-01-20T22:44:37.016Z,32.77
2019-01-20T22:47:07.125Z,32.93
2019-01-20T22:49:37.220Z,34.87
2019-01-20T22:52:07.247Z,34.70
2019-01-20T22:54:37.346Z,34.10
2019-01-20T22:57:08.667Z,32.87
2019-01-20T22:59:38.684Z,33.47
2019-01-20T23:02:08.793Z,34.67
2019-01-20T23:04:38.959Z,31.40
2019-01-20T23:07:09.151Z,30.70
2019-01-20T23:09:39.327Z,34.10
2019-01-20T23:12:09.469Z,30.30
2019-01-20T23:14:39.671Z,30.80
2019-01-20T23:17:10.861Z,31.60
2019-01-20T23:19:40.941Z,30.97
2019-01-20T23:22:11.025Z,32.83
2019-01-20T23:24:41.097Z,32.20
2019-01-20T23:27:11.206Z,31.90
2019-01-20T23:29:41.301Z,34.90
2019-01-20T23:32:11.324Z,31.43
2019-01-20T23:34:41.419Z,34.07
2019-01-20T23:37:11.413Z,32.07
2019-01-20T23:39:41.432Z,30.20
2019-01-20T23:42:11.524Z,31.00
2019-01-20T23:44:41.702Z,35.50
2019-01-20T23:47:15.313Z,34.60
2019-01-20T23:49:43.533Z,33.80
2019-01-20T23:52:13.604Z,31.73
2019-01-20T23:54:43.712Z,32.83
2019-01-20T23:57:13.813Z,33.67
2019-01-20T23:59:43.877Z,29.73
